Ivoryton, CT (06442)

2:46 AM EDT on September 22, 2014 (GMT -0400)
Essex Elementary School | Change Station
CLOSE
Current Station
Personal Weather Station
Location: Centerbrook, CT
Elevation: 89 ft
Nearby Weather Stations

Elev 89 ft 41.35 °N, 72.42 °W | Updated 6 seconds ago

Overcast
Overcast
68.1 °F
Feels Like 68.1 °F
N
5.0
Wind Variable Wind from WNW
Gusts 5.0 mph

Today
High -- | Low -- °F
--% Chance of Precip.
Yesterday
High -- | Low -- °F
Precip. -- in
6:37 AM 6:47 PM
Waning Crescent, 4% visible
Pressure 29.63 in
Visibility 4.0 miles
Clouds Few 2300 ft
Mostly Cloudy 4400 ft
Overcast 6000 ft
Dew Point 67 °F
Humidity 97%
Rainfall 0.00 in
Snow Depth Not available.
UV 0 out of 12
Pollen 1.00 out of 12
Air Quality Not available.
Flu Activity Not available.
METAR KSNC 220635Z AUTO 28003KT 4SM BR FEW023 BKN044 OVC060 19/19 A2963 RMK AO2 P0002

More Conditions Fewer Conditions

Pressure 29.63 in
Visibility 4.0 miles
Clouds Few 2300 ft
Mostly Cloudy 4400 ft
Overcast 6000 ft
Dew Point 67 °F
Humidity 97%
Rainfall 0.00 in
Snow Depth Not available.
UV 0 out of 12
Pollen 1.00 out of 12
Air Quality Not available.
Flu Activity Not available.
METAR KSNC 220635Z AUTO 28003KT 4SM BR FEW023 BKN044 OVC060 19/19 A2963 RMK AO2 P0002

More Conditions Fewer Conditions

10-Day Weather Forecast

Almanac

Astronomy

Sep. 22, 2014 Rise Set
Actual Time 6:37 AM EDT 6:47 PM EDT
Civil Twilight 6:09 AM EDT 7:14 PM EDT
Nautical Twilight 5:37 AM EDT 7:46 PM EDT
Astronomical Twilight 5:04 AM EDT 8:19 PM EDT
Moon 5:02 AM EDT 5:53 PM EDT
Length of Visible Light 13h 04m
Length of Day
12h 09m
Tomorrow will be 2m 45s shorter.
Waning Crescent, 4% of the Moon is Illuminated
Today
Waning Crescent
Sep 24
New
Oct 1
First Quarter
Oct 8
Full
Oct 15
Last Quarter

Today's Extremes

State Highs State Lows

Community

WunderPhotos

Upload Photos

1,755,392 photos uploaded!

Nearby

Air Quality

  Air Quality AQ Index Pollutant
Monday Good
OZONE
Monday Good
PM2.5

Snow Depth

Station Depth Elevation
No new snow has been reported.

Earthquake Activity

City Distance Mag. Time & Date
No recent earthquake activity has been reported nearby.
Minimum magnitude displayed is 2.5.

Coastal Water Temperatures

Place Temperature
New London, CT 68.0 °F
Newport, RI 66.9 °F
Quonset Point, RI 68.0 °F
Conimicut Light, RI 69.1 °F
Providence, RI 69.1 °F

Nearby Weather Stations